Time;durP1;ratioP1;P1;durP2;ratioP2;P2;SDS_P1;SDS_P2;PMS_P1;PMS_P2;Temp;Humidity;BMP_temperature;BMP_pressure;BME280_temperature;BME280_humidity;BME280_pressure;Samples;Min_cycle;Max_cycle;Signal;HPM_P1;HPM_P2
2022/04/17 00:05:37;;;;;;;2.37;1.90;;;14.10;68.60;;;;;;10907257;32;20055;-73
2022/04/17 00:11:41;;;;;;;2.62;1.67;;;14.10;68.90;;;;;;10906376;32;20022;-73
2022/04/17 00:17:43;;;;;;;4.00;2.20;;;14.10;68.70;;;;;;10906769;32;20074;-73
2022/04/17 00:23:45;;;;;;;3.12;1.73;;;14.10;68.80;;;;;;10906490;32;20057;-73
2022/04/17 00:29:47;;;;;;;2.55;1.75;;;14.00;68.70;;;;;;10905579;32;20051;-73
2022/04/17 00:35:49;;;;;;;1.62;1.30;;;14.10;69.10;;;;;;10905700;32;20027;-73
2022/04/17 00:41:53;;;;;;;2.75;1.70;;;14.20;69.40;;;;;;10901956;32;20027;-73
2022/04/17 00:47:55;;;;;;;2.17;1.70;;;14.20;69.60;;;;;;10905951;32;20032;-74
2022/04/17 00:53:58;;;;;;;2.12;1.62;;;14.20;69.90;;;;;;10892209;32;20078;-73
2022/04/17 01:00:01;;;;;;;2.45;1.70;;;14.10;69.70;;;;;;10904991;32;20065;-73
2022/04/17 01:06:04;;;;;;;1.80;1.30;;;13.80;70.10;;;;;;10904870;32;20069;-73
2022/04/17 01:12:08;;;;;;;2.58;1.50;;;13.70;70.00;;;;;;10904752;32;20396;-73
2022/04/17 01:18:10;;;;;;;2.40;1.45;;;13.70;70.40;;;;;;10943103;27;20448;-73
2022/04/17 01:30:52;;;;;;;14.95;1.35;;;13.70;70.80;;;;;;10942381;32;20020;-72
2022/04/17 01:36:55;;;;;;;3.40;1.77;;;13.50;71.00;;;;;;10942245;32;20031;-72
2022/04/17 01:42:57;;;;;;;2.87;2.10;;;13.50;71.20;;;;;;10942127;32;20023;-73
2022/04/17 01:48:59;;;;;;;1.58;0.95;;;13.40;71.50;;;;;;10945705;32;20026;-73
2022/04/17 01:55:01;;;;;;;1.25;0.90;;;13.40;71.40;;;;;;10948078;32;20019;-73
2022/04/17 02:01:03;;;;;;;1.85;1.20;;;13.40;71.40;;;;;;10949286;32;20069;-72
2022/04/17 02:07:05;;;;;;;1.58;1.48;;;13.30;71.50;;;;;;10949228;32;20019;-72
2022/04/17 02:13:07;;;;;;;6.68;2.17;;;13.30;71.50;;;;;;10948817;32;20073;-72
2022/04/17 02:19:09;;;;;;;1.60;1.50;;;13.30;71.60;;;;;;10948752;32;20027;-72
2022/04/17 02:25:11;;;;;;;7.05;2.80;;;13.20;71.70;;;;;;10948705;32;20023;-72
2022/04/17 02:31:16;;;;;;;1.80;1.25;;;13.10;71.90;;;;;;10948269;32;20019;-72
2022/04/17 02:37:19;;;;;;;13.32;5.12;;;13.00;72.10;;;;;;10947892;32;20031;-72
2022/04/17 02:43:22;;;;;;;7.95;4.55;;;12.90;72.20;;;;;;10946038;32;20023;-72
2022/04/17 02:49:24;;;;;;;4.45;2.55;;;13.00;72.00;;;;;;10947791;32;20293;-72
2022/04/17 02:55:26;;;;;;;3.35;2.08;;;12.90;72.30;;;;;;10947723;32;20019;-72
2022/04/17 03:07:50;;;;;;;2.58;1.65;;;12.90;73.10;;;;;;10943118;32;20441;-73
2022/04/17 03:13:52;;;;;;;3.20;2.10;;;12.80;73.30;;;;;;10943851;32;20037;-73
2022/04/17 03:19:54;;;;;;;3.70;2.10;;;12.80;73.30;;;;;;10947084;32;20018;-73
2022/04/17 03:25:56;;;;;;;3.67;2.12;;;12.70;73.70;;;;;;10946881;32;20391;-73
2022/04/17 03:31:58;;;;;;;2.62;1.90;;;12.70;74.00;;;;;;10946717;32;20024;-73
2022/04/17 03:38:00;;;;;;;2.15;1.30;;;12.70;73.80;;;;;;10932940;32;20355;-73
2022/04/17 03:44:03;;;;;;;3.03;1.87;;;12.70;73.90;;;;;;10941987;32;20023;-73
2022/04/17 03:50:06;;;;;;;1.67;1.30;;;12.60;73.40;;;;;;10945210;32;20022;-73
2022/04/17 03:56:08;;;;;;;2.90;1.87;;;12.50;74.10;;;;;;10932090;32;20380;-73
2022/04/17 04:02:10;;;;;;;2.60;2.28;;;12.50;74.20;;;;;;10930752;32;20015;-73
2022/04/17 04:08:12;;;;;;;1.77;1.35;;;12.40;73.90;;;;;;10943653;32;20301;-73
2022/04/17 04:14:14;;;;;;;3.08;1.70;;;12.40;74.00;;;;;;10944877;32;20006;-73
2022/04/17 04:20:16;;;;;;;4.10;2.83;;;12.30;74.30;;;;;;10942076;32;20026;-73
2022/04/17 04:26:19;;;;;;;3.03;2.00;;;12.30;74.50;;;;;;10929664;32;20042;-73
2022/04/17 04:32:21;;;;;;;3.30;2.15;;;12.20;74.40;;;;;;10943391;32;20015;-73
2022/04/17 04:38:24;;;;;;;2.75;1.70;;;12.20;74.60;;;;;;10943814;32;20053;-73
2022/04/17 04:44:26;;;;;;;2.33;1.27;;;12.20;74.20;;;;;;10939897;32;20031;-73
2022/04/17 04:50:28;;;;;;;2.30;1.52;;;12.20;73.90;;;;;;10939401;32;20132;-73
2022/04/17 04:56:30;;;;;;;3.47;1.58;;;12.10;73.30;;;;;;10943191;32;20412;-73
2022/04/17 05:02:53;;;;;;;4.37;1.92;;;11.80;73.60;;;;;;10828253;32;20308;-73
2022/04/17 05:08:55;;;;;;;3.12;2.10;;;11.80;73.80;;;;;;10823357;32;20019;-73
2022/04/17 05:15:11;;;;;;;3.33;1.87;;;11.90;74.00;;;;;;10827793;32;20024;-73
2022/04/17 05:21:27;;;;;;;2.55;1.67;;;12.00;74.50;;;;;;10928251;32;20053;-73
2022/04/17 05:27:29;;;;;;;2.37;1.62;;;12.00;74.20;;;;;;10942752;32;20383;-73
2022/04/17 05:33:31;;;;;;;5.10;2.10;;;12.10;74.10;;;;;;10942190;32;20035;-73
2022/04/17 05:39:33;;;;;;;3.25;2.17;;;12.10;73.90;;;;;;10939340;32;20054;-73
2022/04/17 05:45:36;;;;;;;2.50;1.67;;;12.10;74.50;;;;;;10942117;32;20027;-73
2022/04/17 05:51:39;;;;;;;3.75;2.05;;;12.20;74.30;;;;;;10938458;32;20019;-73
2022/04/17 05:57:41;;;;;;;2.62;1.95;;;12.10;74.10;;;;;;10941644;32;20027;-73
2022/04/17 06:03:43;;;;;;;2.90;1.50;;;12.10;74.40;;;;;;10938093;32;20019;-73
2022/04/17 06:09:45;;;;;;;2.75;1.30;;;12.10;74.60;;;;;;10941258;32;20323;-74
2022/04/17 06:15:47;;;;;;;3.92;1.70;;;12.20;74.20;;;;;;10940922;32;20065;-73
2022/04/17 06:22:01;;;;;;;10.63;2.10;;;12.10;73.70;;;;;;10940940;32;20031;-73
2022/04/17 06:28:04;;;;;;;4.68;1.75;;;12.20;73.70;;;;;;10939546;32;20015;-72
2022/04/17 06:34:06;;;;;;;4.55;2.45;;;12.20;73.20;;;;;;10941778;32;20057;-73
2022/04/17 06:40:08;;;;;;;3.00;1.80;;;12.20;71.90;;;;;;10947518;32;20434;-73
2022/04/17 06:46:10;;;;;;;2.35;1.62;;;12.20;71.90;;;;;;10947369;32;20027;-73
2022/04/17 06:52:12;;;;;;;3.85;2.55;;;12.20;70.90;;;;;;10947046;32;20015;-73
2022/04/17 06:58:15;;;;;;;5.90;2.17;;;12.30;70.50;;;;;;10946763;32;20027;-72
2022/04/17 07:04:18;;;;;;;7.28;2.12;;;12.30;69.00;;;;;;10945613;32;20413;-73
2022/04/17 07:10:44;;;;;;;2.85;1.48;;;12.30;68.50;;;;;;10942130;32;20297;-73
2022/04/17 07:16:47;;;;;;;3.20;1.98;;;12.30;69.40;;;;;;10945903;32;20034;-73
2022/04/17 07:22:49;;;;;;;12.37;3.37;;;12.50;68.60;;;;;;10945728;32;20343;-72
2022/04/17 07:28:51;;;;;;;3.40;2.12;;;12.50;68.50;;;;;;10945155;32;20049;-74
2022/04/17 07:34:53;;;;;;;3.35;2.10;;;12.50;66.70;;;;;;10941607;32;20023;-74
2022/04/17 07:40:55;;;;;;;6.60;3.15;;;12.50;66.70;;;;;;10945409;32;20027;-74
2022/04/17 07:46:57;;;;;;;2.95;1.50;;;12.60;67.20;;;;;;10941081;32;20061;-73
2022/04/17 07:53:15;;;;;;;3.78;1.40;;;12.70;65.90;;;;;;10943944;32;20318;-73
2022/04/17 07:59:17;;;;;;;2.47;1.50;;;12.70;65.90;;;;;;10931214;32;20030;-73
2022/04/17 08:05:23;;;;;;;2.50;1.90;;;12.70;66.50;;;;;;10944559;32;20049;-75
2022/04/17 08:11:26;;;;;;;3.53;1.55;;;12.80;66.40;;;;;;10942795;32;20321;-74
2022/04/17 08:17:27;;;;;;;4.25;2.67;;;12.80;65.90;;;;;;10943884;32;20073;-74
2022/04/17 08:23:29;;;;;;;3.47;2.25;;;12.90;66.50;;;;;;10940710;32;20045;-73
2022/04/17 08:29:32;;;;;;;3.72;2.55;;;12.90;63.60;;;;;;10943714;32;20054;-74
2022/04/17 08:35:35;;;;;;;3.37;2.05;;;12.90;63.60;;;;;;10938569;32;20028;-74
2022/04/17 08:41:40;;;;;;;1.87;1.40;;;13.00;63.40;;;;;;10925101;32;20167;-74
2022/04/17 08:47:42;;;;;;;4.15;2.22;;;13.10;63.00;;;;;;10928923;32;20022;-74
2022/04/17 08:53:48;;;;;;;3.30;1.95;;;13.20;63.00;;;;;;10938253;32;20027;-74
2022/04/17 08:59:50;;;;;;;7.25;3.28;;;13.20;61.20;;;;;;10929876;32;20030;-74
2022/04/17 09:05:52;;;;;;;2.75;1.83;;;13.30;61.80;;;;;;10937861;32;20492;-74
2022/04/17 09:11:57;;;;;;;1.95;1.75;;;13.40;60.50;;;;;;10938535;32;20046;-74
2022/04/17 09:17:59;;;;;;;5.62;2.40;;;13.50;60.20;;;;;;10404161;27;12875919;-75
2022/04/17 09:24:16;;;;;;;2.12;1.67;;;13.70;61.20;;;;;;10789513;33;20329;-74
2022/04/17 09:30:32;;;;;;;4.93;3.22;;;13.80;59.90;;;;;;10785579;33;20075;-75
2022/04/17 09:36:37;;;;;;;5.03;2.30;;;13.90;58.60;;;;;;10787820;33;20055;-75
2022/04/17 09:42:38;;;;;;;4.87;3.03;;;14.00;59.40;;;;;;10840100;32;20086;-74
2022/04/17 09:48:43;;;;;;;5.03;3.28;;;14.10;60.00;;;;;;10862187;32;20110;-75
2022/04/17 09:54:47;;;;;;;4.47;2.90;;;14.20;60.00;;;;;;10843296;32;20043;-75
2022/04/17 10:00:52;;;;;;;2.95;1.83;;;14.20;59.20;;;;;;10848078;32;20075;-74
2022/04/17 10:06:57;;;;;;;3.60;2.70;;;14.30;58.90;;;;;;10845890;32;20040;-75
2022/04/17 10:13:01;;;;;;;5.32;2.47;;;14.50;59.40;;;;;;10872127;32;20054;-75
2022/04/17 10:19:09;;;;;;;6.93;3.22;;;14.70;59.10;;;;;;10872472;32;20035;-75
2022/04/17 10:25:29;;;;;;;4.10;2.23;;;14.80;58.00;;;;;;10860353;32;20050;-73
2022/04/17 10:32:01;;;;;;;5.10;3.47;;;14.90;54.50;;;;;;10859001;32;20030;-73
2022/04/17 10:38:21;;;;;;;6.10;3.35;;;15.00;56.20;;;;;;10870769;32;20348;-73
2022/04/17 10:44:28;;;;;;;4.30;2.55;;;15.20;55.80;;;;;;10872458;32;20058;-74
2022/04/17 10:50:40;;;;;;;6.72;3.62;;;15.40;55.20;;;;;;10872386;32;20042;-73
2022/04/17 10:57:00;;;;;;;7.75;2.87;;;15.70;54.80;;;;;;10870556;32;20024;-74
2022/04/17 11:03:09;;;;;;;5.62;2.60;;;15.90;53.20;;;;;;10871882;32;20430;-74
2022/04/17 11:09:22;;;;;;;6.30;3.15;;;16.00;52.90;;;;;;10867466;32;20403;-73
2022/04/17 11:15:28;;;;;;;5.82;3.30;;;16.30;52.40;;;;;;10871411;32;20046;-74
2022/04/17 11:21:38;;;;;;;4.43;2.50;;;16.60;53.30;;;;;;10870712;32;20024;-73
2022/04/17 11:27:51;;;;;;;3.90;2.42;;;16.80;51.10;;;;;;10871117;32;20027;-74
2022/04/17 11:34:00;;;;;;;7.22;2.85;;;17.20;49.10;;;;;;10870799;32;20016;-73
2022/04/17 11:40:13;;;;;;;10.13;2.47;;;17.50;48.90;;;;;;10870561;32;20035;-73
2022/04/17 11:46:16;;;;;;;4.85;2.92;;;17.70;47.60;;;;;;10867122;32;20024;-74
2022/04/17 11:52:21;;;;;;;3.20;2.05;;;17.60;47.60;;;;;;10866110;32;20505;-73
2022/04/17 11:58:25;;;;;;;5.07;2.53;;;17.40;46.60;;;;;;10869811;32;20020;-74
2022/04/17 12:04:27;;;;;;;4.90;3.03;;;17.60;46.40;;;;;;10869588;32;20054;-74
2022/04/17 12:10:30;;;;;;;3.85;2.75;;;17.70;46.50;;;;;;10869587;32;20146;-73
2022/04/17 12:16:49;;;;;;;6.25;3.17;;;17.80;46.80;;;;;;10865626;32;20335;-73
2022/04/17 12:22:51;;;;;;;;;;;17.90;44.70;;;;;;10866865;32;20028;-73
2022/04/17 12:28:53;;;;;;;7.05;2.42;;;18.30;44.90;;;;;;10865440;32;19946;-74
2022/04/17 12:35:05;;;;;;;5.78;2.70;;;18.50;45.10;;;;;;10863722;32;20058;-74
2022/04/17 12:41:18;;;;;;;9.80;3.25;;;18.50;44.90;;;;;;10868297;32;20057;-74
2022/04/17 12:47:41;;;;;;;4.90;2.42;;;18.50;44.70;;;;;;10868007;32;20057;-74
2022/04/17 12:53:43;;;;;;;2.95;1.67;;;18.30;44.40;;;;;;10868978;32;20067;-72
2022/04/17 12:59:50;;;;;;;7.57;2.55;;;18.30;43.40;;;;;;10868780;32;20031;-72
2022/04/17 13:05:59;;;;;;;2.75;1.42;;;18.60;42.80;;;;;;10868531;32;20016;-73
2022/04/17 13:12:02;;;;;;;2.53;1.73;;;18.60;42.70;;;;;;10868387;32;20031;-73
2022/04/17 13:18:04;;;;;;;6.35;2.22;;;18.80;42.30;;;;;;10868196;32;20027;-73
2022/04/17 13:24:06;;;;;;;9.63;4.07;;;19.00;42.30;;;;;;10863841;32;20035;-73
2022/04/17 13:30:11;;;;;;;4.82;2.37;;;18.90;42.20;;;;;;10867741;32;20043;-73
2022/04/17 13:36:13;;;;;;;2.10;1.15;;;18.90;42.60;;;;;;10863928;32;20031;-72
2022/04/17 13:42:15;;;;;;;6.40;1.83;;;19.10;41.60;;;;;;10867577;32;20050;-72
2022/04/17 13:48:16;;;;;;;6.87;2.65;;;19.00;41.90;;;;;;10875385;32;20028;-72
2022/04/17 13:54:50;;;;;;;4.80;1.85;;;19.30;41.70;;;;;;10871681;32;20055;-72
2022/04/17 14:00:51;;;;;;;5.95;2.55;;;19.20;41.60;;;;;;10873571;32;20031;-72
2022/04/17 14:06:54;;;;;;;7.45;3.45;;;19.30;41.20;;;;;;10874520;32;20050;-74
2022/04/17 14:13:01;;;;;;;4.07;2.67;;;19.10;42.70;;;;;;10874356;32;20032;-73
2022/04/17 14:19:03;;;;;;;3.40;2.58;;;19.00;42.70;;;;;;10870446;32;20391;-73
2022/04/17 14:25:29;;;;;;;6.62;3.28;;;19.10;43.00;;;;;;10873611;32;20066;-73
2022/04/17 14:31:31;;;;;;;3.92;2.53;;;19.20;43.30;;;;;;10858789;32;20032;-72
2022/04/17 14:37:33;;;;;;;5.68;2.90;;;19.20;43.70;;;;;;10836322;32;20044;-72
2022/04/17 14:43:38;;;;;;;6.85;2.50;;;19.40;42.60;;;;;;10835312;32;20023;-72
2022/04/17 14:49:42;;;;;;;3.00;2.30;;;19.50;42.00;;;;;;10830417;32;20023;-72
2022/04/17 14:55:44;;;;;;;8.57;2.55;;;19.80;41.60;;;;;;10832887;32;20479;-72
2022/04/17 15:01:46;;;;;;;3.72;2.00;;;20.00;40.00;;;;;;10835812;32;20031;-72
2022/04/17 15:07:48;;;;;;;2.87;1.83;;;20.30;39.10;;;;;;10841630;32;20031;-72
2022/04/17 15:13:55;;;;;;;7.78;2.45;;;20.60;38.70;;;;;;10868104;32;20146;-72
2022/04/17 15:19:57;;;;;;;2.85;1.90;;;20.90;38.70;;;;;;10872258;32;20024;-72
2022/04/17 15:26:15;;;;;;;3.97;2.42;;;20.90;38.20;;;;;;10868277;32;20032;-72
2022/04/17 15:32:29;;;;;;;3.10;1.50;;;21.00;37.60;;;;;;10870797;32;20054;-72
2022/04/17 15:38:39;;;;;;;4.53;2.17;;;21.20;37.80;;;;;;10870859;32;20027;-73
2022/04/17 15:51:46;;;;;;;7.78;2.78;;;20.80;38.90;;;;;;10866347;32;20054;-73
2022/04/17 15:57:48;;;;;;;5.47;1.37;;;20.40;39.60;;;;;;10740464;32;20382;-73
2022/04/17 16:03:56;;;;;;;4.40;1.48;;;20.30;40.50;;;;;;10755701;33;20055;-72
2022/04/17 16:09:58;;;;;;;3.62;2.05;;;20.70;39.60;;;;;;10755344;33;20056;-72
2022/04/17 16:16:00;;;;;;;2.30;1.70;;;20.60;39.40;;;;;;10755071;33;20047;-72
2022/04/17 16:22:30;;;;;;;2.33;1.10;;;20.20;39.30;;;;;;10756051;33;20113;-72
2022/04/17 16:28:34;;;;;;;;;;;19.80;39.80;;;;;;10754380;33;20020;-72
2022/04/17 16:34:42;;;;;;;2.65;1.62;;;19.60;40.40;;;;;;10845137;32;20007;-72
2022/04/17 16:40:44;;;;;;;2.22;1.85;;;19.20;41.00;;;;;;10849586;32;20085;-72
2022/04/17 16:46:47;;;;;;;2.50;1.40;;;19.00;41.50;;;;;;10831433;32;20055;-72
2022/04/17 16:52:49;;;;;;;2.50;1.80;;;18.80;42.10;;;;;;10827596;33;20094;-72
2022/04/17 17:05:14;;;;;;;2.92;1.33;;;18.70;42.40;;;;;;10831460;32;20050;-73
2022/04/17 17:11:22;;;;;;;1.17;1.08;;;18.60;42.40;;;;;;10828689;32;20431;-73
2022/04/17 17:17:25;;;;;;;2.42;1.30;;;18.50;42.50;;;;;;10991844;27;20025;-73
2022/04/17 17:23:41;;;;;;;2.70;1.60;;;18.30;42.80;;;;;;11018822;32;20022;-74
2022/04/17 17:29:45;;;;;;;2.62;1.80;;;18.20;43.00;;;;;;11014276;32;20015;-73
2022/04/17 17:35:47;;;;;;;2.85;2.03;;;18.10;43.10;;;;;;11016202;32;20027;-73
2022/04/17 17:41:49;;;;;;;2.78;1.62;;;18.00;43.40;;;;;;11017355;32;20381;-73
2022/04/17 17:47:52;;;;;;;2.65;1.45;;;18.20;43.30;;;;;;11018689;32;20026;-73
2022/04/17 17:53:55;;;;;;;1.73;1.37;;;18.20;43.40;;;;;;11014495;32;20323;-71
2022/04/17 17:59:58;;;;;;;3.37;2.37;;;17.90;43.90;;;;;;11017193;32;20378;-70
2022/04/17 18:06:00;;;;;;;2.20;1.77;;;17.70;44.60;;;;;;11014323;32;20046;-71
2022/04/17 18:14:30;;;;;;;2.70;1.73;;;17.40;45.60;;;;;;11016940;32;20355;-71
2022/04/17 18:18:41;;;;;;;6.47;2.35;;;17.30;46.30;;;;;;11016661;32;20053;-71
2022/04/17 18:24:46;;;;;;;2.37;1.50;;;17.10;47.20;;;;;;11016644;32;20114;-71
2022/04/17 18:30:50;;;;;;;3.47;2.47;;;16.90;47.80;;;;;;11017678;32;20345;-71
2022/04/17 18:36:52;;;;;;;4.35;2.60;;;16.80;48.40;;;;;;11010135;32;20015;-71
2022/04/17 18:43:12;;;;;;;4.20;2.17;;;16.60;49.00;;;;;;11023381;32;20030;-71
2022/04/17 18:49:15;;;;;;;3.30;2.17;;;16.50;49.60;;;;;;11023156;32;20111;-70
2022/04/17 18:55:17;;;;;;;6.43;3.70;;;16.40;50.10;;;;;;11022534;32;20034;-70
2022/04/17 19:01:19;;;;;;;5.32;3.35;;;16.30;50.60;;;;;;11022565;32;20026;-71
2022/04/17 19:07:23;;;;;;;7.32;5.03;;;16.20;51.10;;;;;;11022524;32;20402;-70
2022/04/17 19:19:47;;;;;;;6.40;4.47;;;16.10;51.90;;;;;;10980652;32;20057;-71
2022/04/17 19:25:50;;;;;;;6.35;4.60;;;16.00;53.10;;;;;;10979393;32;20054;-71
2022/04/17 19:38:21;;;;;;;6.97;4.47;;;15.80;54.20;;;;;;10976706;32;20058;-71
2022/04/17 19:44:24;;;;;;;7.37;4.60;;;15.70;54.70;;;;;;10982502;32;20053;-71
2022/04/17 19:50:26;;;;;;;8.00;5.47;;;15.60;54.70;;;;;;10980676;32;20034;-71
2022/04/17 19:56:28;;;;;;;7.20;5.32;;;15.40;55.90;;;;;;10980039;32;20339;-70
2022/04/17 20:02:30;;;;;;;7.25;5.20;;;15.30;56.00;;;;;;10976126;32;20093;-70
2022/04/17 20:08:54;;;;;;;8.98;5.22;;;15.30;56.90;;;;;;10981624;32;20391;-71
2022/04/17 20:14:56;;;;;;;8.43;5.32;;;15.20;57.20;;;;;;10980036;32;20168;-70
2022/04/17 20:20:59;;;;;;;8.82;6.43;;;15.10;58.50;;;;;;10968225;32;20034;-71
2022/04/17 20:27:05;;;;;;;8.00;5.15;;;15.00;58.70;;;;;;10981260;32;20027;-71
2022/04/17 20:33:07;;;;;;;7.47;5.30;;;15.00;59.10;;;;;;10981129;32;20031;-71
2022/04/17 20:39:09;;;;;;;9.10;5.90;;;15.00;58.90;;;;;;10980903;32;20060;-70
2022/04/17 20:51:53;;;;;;;8.18;5.62;;;14.70;59.10;;;;;;10980117;32;20026;-71
2022/04/17 20:57:56;;;;;;;6.87;4.85;;;14.50;59.20;;;;;;10979988;32;20027;-70
2022/04/17 21:04:04;;;;;;;11.65;8.00;;;14.30;59.40;;;;;;10978406;32;20048;-70
2022/04/17 21:10:47;;;;;;;8.73;6.25;;;14.30;60.10;;;;;;10980092;32;20297;-71
2022/04/17 21:16:54;;;;;;;9.23;6.05;;;14.40;60.00;;;;;;10979891;32;20049;-70
2022/04/17 21:22:56;;;;;;;11.65;6.30;;;14.40;60.00;;;;;;10979623;32;20034;-71
2022/04/17 21:28:58;;;;;;;6.93;4.65;;;14.30;60.30;;;;;;10979610;32;20030;-70
2022/04/17 21:35:01;;;;;;;7.43;5.72;;;14.30;60.70;;;;;;10979549;32;20425;-70
2022/04/17 21:41:03;;;;;;;9.35;6.57;;;14.30;61.10;;;;;;10988557;32;20056;-70
2022/04/17 21:47:05;;;;;;;7.32;6.12;;;14.30;61.00;;;;;;11017654;32;20320;-70
2022/04/17 21:53:07;;;;;;;8.25;6.32;;;14.20;62.20;;;;;;11015618;32;20018;-70
2022/04/17 21:59:10;;;;;;;10.43;7.25;;;14.10;63.20;;;;;;11017144;32;20038;-71
2022/04/17 22:05:12;;;;;;;9.20;6.53;;;14.00;62.90;;;;;;11019644;32;20056;-70
2022/04/17 22:11:14;;;;;;;12.32;8.13;;;14.00;62.30;;;;;;11022980;32;20030;-70
2022/04/17 22:17:35;;;;;;;6.72;4.97;;;13.90;62.20;;;;;;11020129;32;20026;-70
2022/04/17 22:23:37;;;;;;;10.10;5.55;;;13.80;62.50;;;;;;11008625;32;20331;-70
2022/04/17 22:29:39;;;;;;;12.15;5.82;;;13.70;62.60;;;;;;10983677;32;20049;-73
2022/04/17 22:35:41;;;;;;;6.32;4.75;;;13.70;62.80;;;;;;10986630;32;20089;-73
2022/04/17 22:41:43;;;;;;;5.62;4.10;;;13.60;62.90;;;;;;10985235;32;20030;-73
2022/04/17 22:47:45;;;;;;;7.28;4.97;;;13.60;63.70;;;;;;10986185;32;20035;-73
2022/04/17 22:53:47;;;;;;;5.85;4.00;;;13.60;63.60;;;;;;10986052;32;20425;-73
2022/04/17 22:59:49;;;;;;;3.90;3.05;;;13.60;63.80;;;;;;10981126;32;20034;-73
2022/04/17 23:05:52;;;;;;;5.00;3.05;;;13.50;63.90;;;;;;10984964;32;20058;-73
2022/04/17 23:11:54;;;;;;;6.85;3.80;;;13.40;64.30;;;;;;10985084;32;20045;-73
2022/04/17 23:18:31;;;;;;;3.85;3.00;;;13.40;64.40;;;;;;10983880;32;20014;-73
2022/04/17 23:24:35;;;;;;;4.53;2.50;;;13.30;64.40;;;;;;10984501;32;20061;-73
2022/04/17 23:30:37;;;;;;;2.20;2.00;;;13.40;64.40;;;;;;10984142;32;20403;-73
2022/04/17 23:36:39;;;;;;;3.75;2.50;;;13.30;64.70;;;;;;10983417;32;20019;-73
2022/04/17 23:42:42;;;;;;;3.60;2.00;;;13.30;64.70;;;;;;10983834;32;20413;-73
2022/04/17 23:48:49;;;;;;;2.20;1.92;;;13.30;64.50;;;;;;10983685;32;20023;-73
2022/04/17 23:54:51;;;;;;;7.65;1.77;;;13.30;64.60;;;;;;10983528;32;20054;-73
